createdAt,value
2023-01-17T00:00:22.581Z,89.29
2023-01-17T00:02:54.147Z,88.53
2023-01-17T00:05:39.273Z,88.37
2023-01-17T00:08:32.957Z,88.08
2023-01-17T00:10:59.538Z,86.89
2023-01-17T00:13:26.606Z,84.81
2023-01-17T00:15:53.303Z,86.15
2023-01-17T00:18:25.049Z,86.47
2023-01-17T00:21:09.840Z,87.63
2023-01-17T00:23:54.863Z,87.18
2023-01-17T00:26:59.530Z,86.99
2023-01-17T00:29:50.066Z,88.71
2023-01-17T00:32:19.576Z,88.05
2023-01-17T00:34:46.075Z,88.00
2023-01-17T00:37:12.585Z,86.25
2023-01-17T00:39:39.084Z,86.28
2023-01-17T00:42:05.573Z,86.68
2023-01-17T00:44:50.518Z,86.61
2023-01-17T00:47:35.662Z,86.26
2023-01-17T00:50:20.568Z,85.10
2023-01-17T00:53:06.127Z,86.34
2023-01-17T00:55:52.219Z,87.03
2023-01-17T00:59:18.013Z,85.51
2023-01-17T01:02:06.288Z,84.79
2023-01-17T01:04:51.477Z,84.62
2023-01-17T01:07:36.371Z,83.25
2023-01-17T01:10:21.670Z,84.19
2023-01-17T01:13:06.514Z,82.84
2023-01-17T01:18:30.146Z,85.19
2023-01-17T01:21:20.127Z,87.84
2023-01-17T01:24:05.100Z,88.51
2023-01-17T01:30:23.810Z,88.62
2023-01-17T01:33:09.071Z,87.45
2023-01-17T01:35:36.746Z,88.84
2023-01-17T01:38:03.957Z,86.69
2023-01-17T01:40:30.501Z,85.36
2023-01-17T01:42:59.704Z,86.47
2023-01-17T01:48:07.182Z,88.84
2023-01-17T01:50:36.954Z,86.90
2023-01-17T01:53:05.799Z,86.81
2023-01-17T01:55:39.056Z,87.07
2023-01-17T01:58:16.604Z,87.77
2023-01-17T02:00:50.420Z,86.34
2023-01-17T02:03:21.608Z,85.86
2023-01-17T02:05:48.276Z,85.43
2023-01-17T02:08:18.151Z,84.85
2023-01-17T02:10:44.772Z,85.19
2023-01-17T02:13:15.418Z,87.32
2023-01-17T02:16:17.526Z,87.14
2023-01-17T02:19:22.265Z,87.29
2023-01-17T02:22:09.908Z,85.93
2023-01-17T02:24:48.335Z,87.65
2023-01-17T02:27:27.383Z,88.59
2023-01-17T02:30:38.138Z,87.63
2023-01-17T02:33:53.046Z,87.05
2023-01-17T02:36:25.689Z,88.07
2023-01-17T02:39:07.599Z,88.72
2023-01-17T02:41:46.652Z,90.73
2023-01-17T02:44:18.232Z,89.60
2023-01-17T02:46:45.893Z,87.31
2023-01-17T02:52:27.161Z,88.10
2023-01-17T02:55:01.316Z,88.44
2023-01-17T02:57:49.352Z,88.48
2023-01-17T03:00:28.423Z,87.59
2023-01-17T03:03:02.359Z,87.90
2023-01-17T03:09:07.748Z,86.88
2023-01-17T03:11:34.526Z,87.50
2023-01-17T03:14:01.109Z,85.57
2023-01-17T03:16:31.386Z,86.48
2023-01-17T03:18:57.958Z,86.76
2023-01-17T03:21:25.185Z,86.32
2023-01-17T03:26:47.978Z,88.37
2023-01-17T03:29:16.598Z,87.08
2023-01-17T03:31:43.233Z,88.59
2023-01-17T03:34:09.807Z,89.21
2023-01-17T03:36:36.393Z,87.86
2023-01-17T03:39:08.163Z,89.28
2023-01-17T03:41:34.721Z,88.34
2023-01-17T03:44:10.336Z,87.50
2023-01-17T03:46:37.210Z,88.67
2023-01-17T03:49:03.805Z,86.91
2023-01-17T03:51:30.370Z,86.62
2023-01-17T03:54:09.142Z,87.30
2023-01-17T03:56:35.721Z,87.82
2023-01-17T03:59:02.588Z,88.83
2023-01-17T04:01:29.222Z,90.57
2023-01-17T04:03:55.852Z,89.62
2023-01-17T04:06:22.398Z,89.85
2023-01-17T04:08:49.042Z,89.68
2023-01-17T04:11:15.652Z,89.31
2023-01-17T04:13:42.190Z,88.60
2023-01-17T04:16:17.732Z,88.79
2023-01-17T04:18:44.762Z,90.45
2023-01-17T04:24:17.876Z,88.38
2023-01-17T04:26:45.164Z,88.30
2023-01-17T04:29:11.736Z,87.14
2023-01-17T04:31:38.476Z,87.16
2023-01-17T04:34:05.084Z,86.26
2023-01-17T04:36:32.375Z,86.88
2023-01-17T04:38:58.980Z,87.64
2023-01-17T04:41:25.788Z,87.30
2023-01-17T04:43:52.325Z,85.71
2023-01-17T04:46:18.957Z,87.15
2023-01-17T04:48:45.588Z,87.22
2023-01-17T04:51:12.151Z,87.85
2023-01-17T04:56:34.217Z,86.71
2023-01-17T04:59:00.763Z,87.36
2023-01-17T05:01:27.453Z,86.52
2023-01-17T05:03:54.073Z,87.54
2023-01-17T05:06:20.689Z,87.55
2023-01-17T05:08:53.522Z,86.54
2023-01-17T05:11:25.285Z,86.97
2023-01-17T05:14:08.435Z,88.07
2023-01-17T05:31:00.565Z,86.85
2023-01-17T05:33:27.130Z,87.69
2023-01-17T05:35:53.748Z,88.33
2023-01-17T05:38:23.786Z,87.72
2023-01-17T05:40:50.705Z,87.34
2023-01-17T05:43:17.414Z,85.18
2023-01-17T05:45:48.448Z,86.06
2023-01-17T05:48:30.402Z,87.04
2023-01-17T05:50:57.430Z,88.44
2023-01-17T05:53:24.065Z,88.72
2023-01-17T05:55:51.160Z,88.31
2023-01-17T05:58:21.729Z,87.94
2023-01-17T06:00:48.784Z,88.16
2023-01-17T06:03:16.197Z,87.51
2023-01-17T06:05:43.272Z,85.90
2023-01-17T06:08:10.908Z,85.81
2023-01-17T06:10:37.723Z,87.17
2023-01-17T06:13:07.560Z,86.21
2023-01-17T06:15:36.370Z,84.11
2023-01-17T06:18:11.289Z,83.32
2023-01-17T06:20:38.406Z,84.40
2023-01-17T06:23:07.581Z,84.98
2023-01-17T06:25:38.712Z,84.55
2023-01-17T06:28:07.166Z,83.63
2023-01-17T06:30:34.374Z,83.71
2023-01-17T06:33:00.947Z,83.73
2023-01-17T06:35:27.620Z,83.74
2023-01-17T06:37:55.669Z,84.38
2023-01-17T06:40:22.711Z,83.34
2023-01-17T06:42:49.255Z,84.92
2023-01-17T06:45:15.931Z,85.31
2023-01-17T06:47:43.200Z,84.17
2023-01-17T06:50:13.637Z,84.74
2023-01-17T06:52:41.825Z,82.29
2023-01-17T06:55:09.828Z,82.28
2023-01-17T06:57:36.699Z,83.38
2023-01-17T07:00:04.527Z,82.61
2023-01-17T07:02:31.118Z,81.82
2023-01-17T07:05:09.956Z,81.10
2023-01-17T07:07:52.020Z,80.62
2023-01-17T07:10:18.578Z,81.18
2023-01-17T07:12:45.193Z,80.49
2023-01-17T07:15:12.521Z,81.34
2023-01-17T07:17:39.663Z,81.18
2023-01-17T07:20:06.840Z,81.32
2023-01-17T07:22:33.441Z,80.98
2023-01-17T07:25:00.349Z,80.54
2023-01-17T07:27:30.727Z,81.28
2023-01-17T07:29:58.172Z,79.86
2023-01-17T07:32:26.666Z,79.48
2023-01-17T07:34:54.057Z,79.42
2023-01-17T07:37:21.301Z,79.28
2023-01-17T07:39:47.918Z,79.39
2023-01-17T07:42:14.458Z,79.03
2023-01-17T07:44:43.981Z,79.76
2023-01-17T07:47:11.338Z,80.97
2023-01-17T07:49:38.070Z,80.51
2023-01-17T07:52:07.825Z,78.96
2023-01-17T07:54:34.761Z,78.46
2023-01-17T07:57:02.015Z,78.62
2023-01-17T07:59:28.867Z,79.16
2023-01-17T08:01:55.568Z,78.29
2023-01-17T08:04:26.244Z,77.76
2023-01-17T08:06:54.888Z,77.72
2023-01-17T08:09:22.357Z,77.17
2023-01-17T08:11:49.275Z,78.05
2023-01-17T08:14:15.927Z,76.53
2023-01-17T08:16:42.853Z,75.74
2023-01-17T08:19:10.247Z,76.34
2023-01-17T08:21:36.952Z,75.43
2023-01-17T08:24:15.766Z,75.39
2023-01-17T08:26:57.895Z,74.76
2023-01-17T08:29:29.669Z,74.71
2023-01-17T08:31:56.284Z,75.08
2023-01-17T08:34:22.828Z,75.20
2023-01-17T08:36:51.846Z,75.15
2023-01-17T08:39:23.386Z,74.44
2023-01-17T08:41:49.928Z,73.82
2023-01-17T08:44:16.590Z,73.37
2023-01-17T08:46:44.216Z,73.37
2023-01-17T08:49:11.514Z,73.49
2023-01-17T08:51:38.545Z,72.66
2023-01-17T08:54:05.323Z,72.31
2023-01-17T08:56:31.863Z,72.26
2023-01-17T08:58:58.409Z,71.69
2023-01-17T09:01:25.076Z,71.84
2023-01-17T09:03:52.527Z,72.51
2023-01-17T09:06:19.247Z,70.79
2023-01-17T09:08:47.021Z,71.48
2023-01-17T09:11:17.084Z,70.80
2023-01-17T09:13:47.192Z,70.40
2023-01-17T09:16:13.824Z,69.66
2023-01-17T09:18:59.280Z,69.02
2023-01-17T09:21:50.806Z,68.78
2023-01-17T09:24:22.489Z,69.60
2023-01-17T09:26:49.076Z,70.79
2023-01-17T09:29:17.879Z,71.92
2023-01-17T09:31:47.167Z,71.73
2023-01-17T09:34:14.426Z,71.35
2023-01-17T09:36:42.100Z,71.35
2023-01-17T09:39:18.868Z,71.91
2023-01-17T09:41:52.909Z,70.82
2023-01-17T09:44:39.070Z,69.74
2023-01-17T09:47:42.488Z,69.04
2023-01-17T09:54:04.330Z,69.21
2023-01-17T09:57:12.776Z,71.81
2023-01-17T10:02:46.909Z,70.44
2023-01-17T10:05:33.391Z,70.27
2023-01-17T10:08:45.078Z,70.32
2023-01-17T10:11:43.171Z,68.85
2023-01-17T10:14:28.043Z,68.45
2023-01-17T10:17:03.178Z,69.43
2023-01-17T10:19:50.624Z,68.35
2023-01-17T10:22:35.875Z,68.89
2023-01-17T10:25:23.981Z,68.15
2023-01-17T10:28:04.579Z,67.90
2023-01-17T10:30:39.028Z,66.58
2023-01-17T10:33:19.432Z,67.52
2023-01-17T10:35:54.814Z,65.63
2023-01-17T10:38:43.398Z,66.04
2023-01-17T10:41:25.992Z,62.99
2023-01-17T10:44:17.408Z,64.45
2023-01-17T10:47:01.655Z,64.62
2023-01-17T10:50:33.989Z,65.45
2023-01-17T10:53:32.053Z,62.83
2023-01-17T10:56:00.837Z,64.48
2023-01-17T10:58:27.407Z,63.63
2023-01-17T11:01:27.408Z,64.07
2023-01-17T11:03:55.298Z,63.68
2023-01-17T11:06:24.470Z,64.37
2023-01-17T11:08:51.235Z,63.99
2023-01-17T11:11:19.795Z,65.71
2023-01-17T11:13:49.020Z,62.74
2023-01-17T11:16:22.189Z,61.11
2023-01-17T11:19:06.481Z,63.81
2023-01-17T11:21:33.485Z,62.06
2023-01-17T11:24:10.651Z,63.96
2023-01-17T11:26:45.733Z,62.67
2023-01-17T11:29:23.895Z,61.20
2023-01-17T11:31:50.450Z,61.69
2023-01-17T11:34:22.673Z,58.75
2023-01-17T11:36:50.003Z,58.07
2023-01-17T11:39:19.760Z,60.13
2023-01-17T11:41:47.892Z,57.92
2023-01-17T11:44:35.415Z,58.18
2023-01-17T11:47:12.372Z,61.97
2023-01-17T11:49:40.679Z,61.16
2023-01-17T11:52:36.036Z,61.27
2023-01-17T11:55:02.734Z,59.74
2023-01-17T11:57:33.416Z,62.37
2023-01-17T12:00:08.992Z,63.13
2023-01-17T12:03:15.295Z,63.59
2023-01-17T12:06:09.131Z,61.64
2023-01-17T12:08:54.469Z,60.97
2023-01-17T12:12:05.929Z,59.84
2023-01-17T12:15:10.319Z,60.19
2023-01-17T12:18:14.335Z,59.18
2023-01-17T12:20:49.752Z,59.18
2023-01-17T12:23:34.135Z,59.02
2023-01-17T12:26:25.579Z,58.30
2023-01-17T12:29:07.869Z,55.04
2023-01-17T12:31:38.854Z,56.70
2023-01-17T12:34:13.988Z,54.63
2023-01-17T12:36:52.537Z,54.05
2023-01-17T12:39:26.126Z,53.39
2023-01-17T12:42:13.502Z,54.20
2023-01-17T12:45:04.574Z,57.74
2023-01-17T12:47:34.803Z,59.67
2023-01-17T12:50:16.044Z,59.19
2023-01-17T12:53:19.039Z,58.73
2023-01-17T12:56:01.976Z,58.80
2023-01-17T12:58:36.885Z,59.12
2023-01-17T13:01:11.176Z,58.44
2023-01-17T13:03:44.922Z,60.65
2023-01-17T13:06:22.116Z,60.73
2023-01-17T13:08:53.584Z,61.22
2023-01-17T13:11:44.203Z,61.16
2023-01-17T13:14:10.829Z,61.29
2023-01-17T13:16:37.472Z,61.27
2023-01-17T13:19:24.845Z,63.22
2023-01-17T13:21:52.386Z,65.25
2023-01-17T13:24:35.947Z,64.70
2023-01-17T13:27:34.859Z,64.24
2023-01-17T13:30:32.230Z,63.94
2023-01-17T13:33:32.902Z,63.04
2023-01-17T13:36:30.084Z,65.50
2023-01-17T13:39:29.699Z,66.39
2023-01-17T13:42:25.055Z,66.33
2023-01-17T13:44:52.067Z,67.28
2023-01-17T13:47:18.566Z,68.09
2023-01-17T13:49:50.821Z,66.85
2023-01-17T13:52:20.268Z,68.26
2023-01-17T13:55:07.364Z,67.14
2023-01-17T13:57:42.073Z,67.73
2023-01-17T14:00:21.525Z,69.02
2023-01-17T14:02:49.666Z,68.32
2023-01-17T14:05:23.403Z,67.17
2023-01-17T14:08:14.368Z,66.87
2023-01-17T14:10:47.761Z,66.05
2023-01-17T14:13:37.354Z,65.40
2023-01-17T14:16:26.947Z,66.27
2023-01-17T14:18:54.473Z,65.44
2023-01-17T14:21:27.192Z,65.25
2023-01-17T14:24:20.184Z,66.02
2023-01-17T14:26:58.559Z,65.84
2023-01-17T14:29:43.925Z,66.04
2023-01-17T14:32:17.488Z,67.03
2023-01-17T14:34:46.524Z,67.62
2023-01-17T14:37:22.339Z,65.99
2023-01-17T14:39:51.034Z,67.04
2023-01-17T14:42:22.291Z,67.13
2023-01-17T14:44:52.818Z,67.50
2023-01-17T14:47:19.982Z,65.85
2023-01-17T14:49:46.516Z,64.87
2023-01-17T14:52:23.629Z,66.60
2023-01-17T14:54:53.992Z,66.26
2023-01-17T14:57:28.123Z,66.34
2023-01-17T15:00:19.252Z,67.88
2023-01-17T15:02:50.126Z,68.16
2023-01-17T15:05:20.056Z,67.21
2023-01-17T15:07:49.733Z,68.80
2023-01-17T15:10:24.027Z,67.68
2023-01-17T15:12:52.313Z,68.41
2023-01-17T15:15:28.253Z,67.09
2023-01-17T15:18:13.146Z,67.83
2023-01-17T15:20:42.754Z,67.73
2023-01-17T15:23:18.303Z,65.22
2023-01-17T15:25:49.489Z,67.22
2023-01-17T15:28:16.714Z,66.79
2023-01-17T15:31:00.683Z,67.08
2023-01-17T15:33:27.693Z,66.25
2023-01-17T15:36:21.393Z,67.01
2023-01-17T15:39:00.425Z,65.81
2023-01-17T15:41:34.805Z,66.94
2023-01-17T15:44:02.438Z,66.42
2023-01-17T15:46:42.095Z,65.98
2023-01-17T15:49:21.048Z,66.65
2023-01-17T15:51:51.487Z,68.57
2023-01-17T15:54:50.589Z,67.65
2023-01-17T15:57:18.025Z,68.35
2023-01-17T16:00:14.787Z,68.59
2023-01-17T16:02:46.394Z,68.05
2023-01-17T16:05:22.777Z,68.80
2023-01-17T16:07:53.135Z,68.64
2023-01-17T16:10:22.220Z,68.34
2023-01-17T16:12:53.899Z,68.70
2023-01-17T16:15:22.148Z,68.01
2023-01-17T16:17:51.674Z,67.70
2023-01-17T16:20:28.145Z,69.18
2023-01-17T16:22:54.754Z,67.94
2023-01-17T16:25:23.809Z,70.40
2023-01-17T16:27:51.080Z,70.95
2023-01-17T16:30:21.302Z,73.84
2023-01-17T16:32:49.104Z,74.56
2023-01-17T16:35:21.542Z,74.17
2023-01-17T16:37:53.219Z,76.84
2023-01-17T16:40:21.862Z,76.95
2023-01-17T16:42:48.552Z,78.21
2023-01-17T16:45:16.261Z,78.28
2023-01-17T16:47:46.989Z,77.04
2023-01-17T16:50:16.435Z,77.87
2023-01-17T16:52:43.027Z,78.56
2023-01-17T16:55:14.276Z,80.24
2023-01-17T16:57:40.992Z,80.17
2023-01-17T17:00:09.839Z,79.60
2023-01-17T17:02:38.563Z,80.73
2023-01-17T17:05:07.404Z,83.78
2023-01-17T17:07:43.049Z,84.53
2023-01-17T17:10:11.218Z,84.17
2023-01-17T17:12:37.901Z,84.53
2023-01-17T17:15:05.408Z,83.93
2023-01-17T17:17:39.831Z,83.72
2023-01-17T17:20:09.840Z,85.62
2023-01-17T17:22:36.425Z,87.12
2023-01-17T17:25:03.401Z,85.37
2023-01-17T17:27:29.957Z,88.28
2023-01-17T17:29:56.506Z,89.85
2023-01-17T17:32:23.365Z,88.26
2023-01-17T17:34:52.861Z,91.30
2023-01-17T17:37:19.532Z,93.28
2023-01-17T17:39:46.144Z,92.10
2023-01-17T17:42:12.949Z,92.48
2023-01-17T17:44:39.567Z,90.84
2023-01-17T17:47:06.180Z,93.40
2023-01-17T17:49:32.911Z,93.29
2023-01-17T17:52:06.886Z,92.87
2023-01-17T17:54:33.994Z,91.37
2023-01-17T17:57:00.699Z,92.07
2023-01-17T17:59:27.309Z,92.51
2023-01-17T18:01:54.164Z,92.05
2023-01-17T18:04:21.657Z,91.75
2023-01-17T18:06:48.361Z,93.66
2023-01-17T18:09:15.115Z,100.00
2023-01-17T18:11:43.301Z,100.00
2023-01-17T18:14:13.939Z,100.00
2023-01-17T18:16:43.282Z,92.67
2023-01-17T18:19:15.903Z,91.08
2023-01-17T18:21:43.548Z,89.90
2023-01-17T18:24:12.928Z,91.57
2023-01-17T18:26:48.467Z,92.56
2023-01-17T18:29:16.502Z,91.40
2023-01-17T18:31:44.911Z,93.55
2023-01-17T18:34:16.629Z,93.19
2023-01-17T18:36:43.987Z,92.98
2023-01-17T18:39:17.124Z,94.08
2023-01-17T18:41:47.289Z,94.77
2023-01-17T18:44:14.113Z,94.66
2023-01-17T18:46:42.122Z,94.78
2023-01-17T18:49:13.228Z,97.80
2023-01-17T18:51:39.855Z,96.74
2023-01-17T18:54:08.758Z,96.06
2023-01-17T18:56:35.597Z,95.32
2023-01-17T18:59:02.821Z,95.67
2023-01-17T19:01:33.628Z,94.53
2023-01-17T19:04:04.550Z,97.26
2023-01-17T19:06:34.510Z,97.19
2023-01-17T19:09:01.553Z,97.89
2023-01-17T19:11:28.849Z,98.25
2023-01-17T19:13:55.959Z,98.30
2023-01-17T19:16:28.702Z,100.00
2023-01-17T19:18:56.999Z,100.00
2023-01-17T19:21:26.022Z,100.00
2023-01-17T19:23:54.268Z,100.00
2023-01-17T19:26:23.109Z,100.00
2023-01-17T19:28:50.619Z,100.00
2023-01-17T19:31:22.631Z,100.00
2023-01-17T19:33:51.535Z,100.00
2023-01-17T19:36:21.490Z,100.00
2023-01-17T19:39:03.061Z,100.00
2023-01-17T19:41:32.713Z,100.00
2023-01-17T19:44:02.038Z,100.00
2023-01-17T19:46:29.153Z,100.00
2023-01-17T19:48:59.585Z,100.00
2023-01-17T19:51:29.393Z,100.00
2023-01-17T19:53:58.884Z,100.00
2023-01-17T19:56:26.669Z,100.00
2023-01-17T19:58:53.886Z,100.00
2023-01-17T20:01:24.021Z,100.00
2023-01-17T20:03:51.673Z,100.00
2023-01-17T20:06:23.961Z,100.00
2023-01-17T20:08:50.898Z,100.00
2023-01-17T20:11:19.953Z,100.00
2023-01-17T20:13:47.962Z,100.00
2023-01-17T20:16:16.671Z,99.07
2023-01-17T20:18:44.177Z,99.58
2023-01-17T20:21:14.109Z,100.00
2023-01-17T20:23:43.066Z,100.00
2023-01-17T20:26:11.294Z,99.09
2023-01-17T20:28:40.097Z,98.44
2023-01-17T20:31:09.018Z,99.73
2023-01-17T20:33:55.771Z,98.65
2023-01-17T20:36:25.370Z,99.20
2023-01-17T20:38:53.303Z,100.00
2023-01-17T20:41:43.139Z,98.39
2023-01-17T20:44:13.040Z,95.49
2023-01-17T20:46:41.310Z,99.31
2023-01-17T20:49:14.655Z,98.26
2023-01-17T20:51:42.065Z,97.62
2023-01-17T20:54:13.757Z,99.85
2023-01-17T20:56:42.787Z,100.00
2023-01-17T20:59:12.911Z,100.00
2023-01-17T21:01:39.612Z,100.00
2023-01-17T21:04:10.091Z,100.00
2023-01-17T21:06:41.264Z,100.00
2023-01-17T21:09:23.625Z,100.00
2023-01-17T21:11:51.743Z,100.00
2023-01-17T21:14:18.364Z,100.00
2023-01-17T21:16:44.927Z,100.00
2023-01-17T21:19:47.648Z,100.00
2023-01-17T21:22:32.519Z,98.49
2023-01-17T21:24:59.958Z,98.62
2023-01-17T21:27:29.306Z,96.60
2023-01-17T21:30:11.718Z,96.49
2023-01-17T21:32:38.249Z,95.17
2023-01-17T21:38:06.865Z,96.62
2023-01-17T21:40:33.908Z,95.87
2023-01-17T21:43:00.501Z,94.35
2023-01-17T21:45:31.927Z,94.86
2023-01-17T21:47:59.191Z,96.88
2023-01-17T21:50:33.399Z,97.01
2023-01-17T21:53:00.410Z,96.44
2023-01-17T21:55:50.202Z,94.18
2023-01-17T21:58:36.173Z,93.09
2023-01-17T22:01:30.349Z,93.23
2023-01-17T22:04:03.802Z,89.81
2023-01-17T22:06:32.708Z,89.14
2023-01-17T22:09:23.413Z,89.09
2023-01-17T22:12:11.795Z,90.93
2023-01-17T22:14:39.302Z,90.71
2023-01-17T22:17:05.825Z,91.79
2023-01-17T22:19:33.661Z,90.13
2023-01-17T22:22:00.320Z,91.22
2023-01-17T22:24:27.150Z,89.44
2023-01-17T22:26:57.766Z,88.28
2023-01-17T22:29:24.527Z,85.77
2023-01-17T22:31:51.193Z,84.70
2023-01-17T22:34:18.897Z,85.21
2023-01-17T22:37:08.060Z,86.07
2023-01-17T22:40:10.064Z,88.31
2023-01-17T22:42:49.330Z,87.58
2023-01-17T22:45:19.462Z,85.46
2023-01-17T22:47:46.056Z,85.74
2023-01-17T22:50:13.258Z,85.46
2023-01-17T22:52:39.863Z,84.73
2023-01-17T22:55:06.716Z,83.56
2023-01-17T22:57:33.959Z,82.74
2023-01-17T23:00:00.521Z,82.17
2023-01-17T23:02:27.119Z,83.82
2023-01-17T23:04:53.701Z,84.86
2023-01-17T23:07:20.328Z,82.02
2023-01-17T23:09:46.888Z,82.30
2023-01-17T23:12:39.086Z,82.01
2023-01-17T23:15:49.904Z,81.87
2023-01-17T23:18:35.219Z,80.87
2023-01-17T23:21:02.282Z,78.99
2023-01-17T23:23:28.809Z,78.90
2023-01-17T23:26:07.447Z,79.57
2023-01-17T23:28:33.977Z,80.59
2023-01-17T23:31:03.680Z,79.29
2023-01-17T23:33:30.429Z,78.33
2023-01-17T23:35:57.129Z,80.01
2023-01-17T23:38:26.469Z,78.71
2023-01-17T23:41:18.707Z,78.07
2023-01-17T23:43:50.615Z,78.27
2023-01-17T23:46:17.165Z,78.33
2023-01-17T23:48:43.665Z,78.24
2023-01-17T23:51:10.246Z,77.80
2023-01-17T23:53:38.988Z,76.97
2023-01-17T23:56:27.129Z,77.00
2023-01-17T23:58:54.435Z,76.84
